Norwich, United Kingdom
Current Conditions -  °F | °C
As of 7:20 AM on Sunday 26 Oct 2014 (Local Time) from EGSH Reporting Station
Clear Clear  
Wind Chill: 52°   Ceiling: Unl
Heat Index: 52°   Visibility: 6mi
Dew Point: 46°   Wind: 10mph
Humidity: 82%   Direction: 200°SSW
Pressure: 30.09"   Gusts: NA
Location:  52.63°N, 1.3°E
Report Text: EGSH 260620Z 20009KT 150V250 CAVOK 11/08 Q1019
Loading
Personal Weather Stations






























Interactive Weather Map
Tropical Storm Tracking
New forecast layout! Learn more

10-Day Weather Forecast

Advertisements
Track Severe Weather on mobile